sensor_id;sensor_type;location;lat;lon;timestamp;pressure;altitude;pressure_sealevel;temperature;humidity
48622;BME280;34421;48.944;9.460;2023-01-30T00:01:06;99218.28;;;-0.87;67.19
48622;BME280;34421;48.944;9.460;2023-01-30T00:03:36;99202.59;;;-0.87;68.27
48622;BME280;34421;48.944;9.460;2023-01-30T00:06:01;99202.00;;;-0.90;68.20
48622;BME280;34421;48.944;9.460;2023-01-30T00:08:27;99202.16;;;-0.92;67.65
48622;BME280;34421;48.944;9.460;2023-01-30T00:10:52;99187.63;;;-0.85;67.06
48622;BME280;34421;48.944;9.460;2023-01-30T00:13:17;99187.16;;;-0.79;68.05
48622;BME280;34421;48.944;9.460;2023-01-30T00:15:42;99180.38;;;-0.81;67.34
48622;BME280;34421;48.944;9.460;2023-01-30T00:18:08;99178.97;;;-0.85;66.51
48622;BME280;34421;48.944;9.460;2023-01-30T00:20:33;99189.19;;;-0.82;67.50
48622;BME280;34421;48.944;9.460;2023-01-30T00:22:58;99184.06;;;-0.84;66.93
48622;BME280;34421;48.944;9.460;2023-01-30T00:25:26;99189.03;;;-0.81;66.57
48622;BME280;34421;48.944;9.460;2023-01-30T00:27:52;99167.19;;;-0.80;67.55
48622;BME280;34421;48.944;9.460;2023-01-30T00:30:17;99167.44;;;-0.83;66.67
48622;BME280;34421;48.944;9.460;2023-01-30T00:32:42;99153.41;;;-0.93;67.28
48622;BME280;34421;48.944;9.460;2023-01-30T00:35:07;99157.13;;;-1.07;67.31
48622;BME280;34421;48.944;9.460;2023-01-30T00:37:33;99163.75;;;-1.03;66.67
48622;BME280;34421;48.944;9.460;2023-01-30T00:39:58;99159.00;;;-0.98;66.61
48622;BME280;34421;48.944;9.460;2023-01-30T00:42:23;99163.84;;;-0.93;65.92
48622;BME280;34421;48.944;9.460;2023-01-30T00:45:09;99180.50;;;-0.94;65.95
48622;BME280;34421;48.944;9.460;2023-01-30T00:47:53;99191.94;;;-0.95;66.27
48622;BME280;34421;48.944;9.460;2023-01-30T00:50:18;99196.69;;;-0.89;67.11
48622;BME280;34421;48.944;9.460;2023-01-30T00:52:43;99194.50;;;-0.84;66.23
48622;BME280;34421;48.944;9.460;2023-01-30T00:55:08;99199.50;;;-0.81;67.17
48622;BME280;34421;48.944;9.460;2023-01-30T00:57:34;99207.09;;;-0.78;67.65
48622;BME280;34421;48.944;9.460;2023-01-30T00:59:59;99231.59;;;-0.79;67.64
48622;BME280;34421;48.944;9.460;2023-01-30T01:02:24;99233.97;;;-0.87;66.54
48622;BME280;34421;48.944;9.460;2023-01-30T01:04:49;99245.97;;;-0.96;68.01
48622;BME280;34421;48.944;9.460;2023-01-30T01:07:15;99240.97;;;-0.99;68.46
48622;BME280;34421;48.944;9.460;2023-01-30T01:09:40;99241.34;;;-1.03;68.81
48622;BME280;34421;48.944;9.460;2023-01-30T01:12:06;99237.78;;;-0.91;68.56
48622;BME280;34421;48.944;9.460;2023-01-30T01:14:31;99228.75;;;-0.76;68.14
48622;BME280;34421;48.944;9.460;2023-01-30T01:16:56;99224.56;;;-0.56;68.58
48622;BME280;34421;48.944;9.460;2023-01-30T01:19:22;99235.13;;;-0.35;68.06
48622;BME280;34421;48.944;9.460;2023-01-30T01:21:47;99242.31;;;-0.16;67.90
48622;BME280;34421;48.944;9.460;2023-01-30T01:24:13;99234.53;;;0.05;68.63
48622;BME280;34421;48.944;9.460;2023-01-30T01:26:38;99233.41;;;0.19;68.33
48622;BME280;34421;48.944;9.460;2023-01-30T01:29:04;99241.13;;;0.20;67.72
48622;BME280;34421;48.944;9.460;2023-01-30T01:31:29;99238.38;;;0.22;68.07
48622;BME280;34421;48.944;9.460;2023-01-30T01:33:54;99245.38;;;0.33;67.25
48622;BME280;34421;48.944;9.460;2023-01-30T01:36:20;99243.66;;;0.43;67.46
48622;BME280;34421;48.944;9.460;2023-01-30T01:38:45;99245.81;;;0.59;67.12
48622;BME280;34421;48.944;9.460;2023-01-30T01:41:11;99238.16;;;0.67;67.47
48622;BME280;34421;48.944;9.460;2023-01-30T01:43:56;99232.28;;;0.75;66.60
48622;BME280;34421;48.944;9.460;2023-01-30T01:46:23;99236.75;;;0.84;67.18
48622;BME280;34421;48.944;9.460;2023-01-30T01:48:54;99229.19;;;0.90;66.97
48622;BME280;34421;48.944;9.460;2023-01-30T01:53:54;99208.22;;;0.90;66.28
48622;BME280;34421;48.944;9.460;2023-01-30T01:56:21;99211.53;;;0.93;66.19
48622;BME280;34421;48.944;9.460;2023-01-30T01:58:51;99215.28;;;1.00;66.71
48622;BME280;34421;48.944;9.460;2023-01-30T02:01:19;99227.16;;;1.04;65.91
48622;BME280;34421;48.944;9.460;2023-01-30T02:03:46;99224.88;;;1.10;66.48
48622;BME280;34421;48.944;9.460;2023-01-30T02:06:13;99207.81;;;0.95;65.33
48622;BME280;34421;48.944;9.460;2023-01-30T02:08:40;99213.78;;;0.76;66.04
48622;BME280;34421;48.944;9.460;2023-01-30T02:11:28;99214.88;;;0.74;66.82
48622;BME280;34421;48.944;9.460;2023-01-30T02:13:54;99203.38;;;0.65;66.53
48622;BME280;34421;48.944;9.460;2023-01-30T02:16:20;99200.00;;;0.53;65.86
48622;BME280;34421;48.944;9.460;2023-01-30T02:18:46;99198.59;;;0.49;65.95
48622;BME280;34421;48.944;9.460;2023-01-30T02:33:49;99172.78;;;0.23;67.12
48622;BME280;34421;48.944;9.460;2023-01-30T02:36:32;99158.03;;;0.22;67.34
48622;BME280;34421;48.944;9.460;2023-01-30T02:41:49;99135.59;;;0.30;67.51
48622;BME280;34421;48.944;9.460;2023-01-30T02:47:05;99134.13;;;0.37;66.99
48622;BME280;34421;48.944;9.460;2023-01-30T02:49:34;99151.81;;;0.44;66.79
48622;BME280;34421;48.944;9.460;2023-01-30T02:52:00;99153.84;;;0.62;66.57
48622;BME280;34421;48.944;9.460;2023-01-30T02:54:26;99149.06;;;0.77;66.38
48622;BME280;34421;48.944;9.460;2023-01-30T02:56:53;99149.69;;;0.90;66.41
48622;BME280;34421;48.944;9.460;2023-01-30T02:59:21;99148.91;;;0.99;67.02
48622;BME280;34421;48.944;9.460;2023-01-30T03:02:22;99142.16;;;1.06;66.92
48622;BME280;34421;48.944;9.460;2023-01-30T03:07:26;99122.31;;;1.13;66.73
48622;BME280;34421;48.944;9.460;2023-01-30T03:17:27;99093.47;;;1.13;66.06
48622;BME280;34421;48.944;9.460;2023-01-30T03:19:54;99078.00;;;1.20;65.84
48622;BME280;34421;48.944;9.460;2023-01-30T03:22:20;99069.44;;;1.28;66.22
48622;BME280;34421;48.944;9.460;2023-01-30T03:24:46;99050.41;;;1.35;65.60
48622;BME280;34421;48.944;9.460;2023-01-30T03:27:11;99039.63;;;1.29;65.59
48622;BME280;34421;48.944;9.460;2023-01-30T03:29:37;99037.28;;;1.26;65.33
48622;BME280;34421;48.944;9.460;2023-01-30T03:32:03;99034.66;;;1.26;65.72
48622;BME280;34421;48.944;9.460;2023-01-30T03:34:28;99042.69;;;1.34;65.83
48622;BME280;34421;48.944;9.460;2023-01-30T03:36:53;99034.53;;;1.37;65.67
48622;BME280;34421;48.944;9.460;2023-01-30T03:39:19;99036.03;;;1.40;65.30
48622;BME280;34421;48.944;9.460;2023-01-30T03:41:44;99053.03;;;1.45;65.75
48622;BME280;34421;48.944;9.460;2023-01-30T03:44:09;99052.88;;;1.56;65.37
48622;BME280;34421;48.944;9.460;2023-01-30T03:46:35;99052.06;;;1.66;65.50
48622;BME280;34421;48.944;9.460;2023-01-30T03:49:00;99045.41;;;1.71;65.70
48622;BME280;34421;48.944;9.460;2023-01-30T03:51:25;99051.75;;;1.78;65.00
48622;BME280;34421;48.944;9.460;2023-01-30T03:53:50;99042.38;;;1.76;65.07
48622;BME280;34421;48.944;9.460;2023-01-30T03:56:15;99042.94;;;1.79;65.08
48622;BME280;34421;48.944;9.460;2023-01-30T03:58:41;99030.75;;;1.88;65.05
48622;BME280;34421;48.944;9.460;2023-01-30T04:01:06;99030.19;;;1.94;64.95
48622;BME280;34421;48.944;9.460;2023-01-30T04:03:33;99042.75;;;2.00;64.96
48622;BME280;34421;48.944;9.460;2023-01-30T04:05:58;99052.28;;;2.01;64.77
48622;BME280;34421;48.944;9.460;2023-01-30T04:08:23;99053.38;;;2.09;64.85
48622;BME280;34421;48.944;9.460;2023-01-30T04:10:48;99046.31;;;2.19;64.75
48622;BME280;34421;48.944;9.460;2023-01-30T04:13:14;99051.97;;;2.24;64.36
48622;BME280;34421;48.944;9.460;2023-01-30T04:15:39;99049.34;;;2.24;63.81
48622;BME280;34421;48.944;9.460;2023-01-30T04:18:04;99040.19;;;2.28;63.54
48622;BME280;34421;48.944;9.460;2023-01-30T04:20:29;99044.03;;;2.34;63.48
48622;BME280;34421;48.944;9.460;2023-01-30T04:22:54;99035.88;;;2.37;63.24
48622;BME280;34421;48.944;9.460;2023-01-30T04:25:22;99043.34;;;2.32;63.36
48622;BME280;34421;48.944;9.460;2023-01-30T04:27:47;99045.16;;;2.31;63.16
48622;BME280;34421;48.944;9.460;2023-01-30T04:30:12;99044.03;;;2.34;63.42
48622;BME280;34421;48.944;9.460;2023-01-30T04:32:37;99043.75;;;2.37;63.52
48622;BME280;34421;48.944;9.460;2023-01-30T04:35:03;99036.69;;;2.37;63.59
48622;BME280;34421;48.944;9.460;2023-01-30T04:37:28;99038.06;;;2.41;63.47
48622;BME280;34421;48.944;9.460;2023-01-30T04:39:53;99037.78;;;2.44;62.79
48622;BME280;34421;48.944;9.460;2023-01-30T04:42:18;99035.53;;;2.49;63.50
48622;BME280;34421;48.944;9.460;2023-01-30T04:44:44;99033.88;;;2.48;63.11
48622;BME280;34421;48.944;9.460;2023-01-30T04:47:09;99041.34;;;2.53;62.43
48622;BME280;34421;48.944;9.460;2023-01-30T04:49:34;99037.88;;;2.53;62.65
48622;BME280;34421;48.944;9.460;2023-01-30T04:51:59;99039.31;;;2.47;62.82
48622;BME280;34421;48.944;9.460;2023-01-30T04:54:25;99035.97;;;2.45;63.47
48622;BME280;34421;48.944;9.460;2023-01-30T04:56:50;99029.31;;;2.50;62.50
48622;BME280;34421;48.944;9.460;2023-01-30T04:59:15;99032.47;;;2.54;63.52
48622;BME280;34421;48.944;9.460;2023-01-30T05:01:40;99030.38;;;2.58;62.20
48622;BME280;34421;48.944;9.460;2023-01-30T05:04:06;99032.31;;;2.56;62.51
48622;BME280;34421;48.944;9.460;2023-01-30T05:06:31;99024.72;;;2.53;62.75
48622;BME280;34421;48.944;9.460;2023-01-30T05:08:57;99025.56;;;2.53;62.63
48622;BME280;34421;48.944;9.460;2023-01-30T05:11:23;99028.28;;;2.61;61.78
48622;BME280;34421;48.944;9.460;2023-01-30T05:13:49;99024.53;;;2.64;62.40
48622;BME280;34421;48.944;9.460;2023-01-30T05:16:14;99014.19;;;2.62;62.20
48622;BME280;34421;48.944;9.460;2023-01-30T05:18:40;99014.72;;;2.66;62.23
48622;BME280;34421;48.944;9.460;2023-01-30T05:21:06;99020.50;;;2.69;62.64
48622;BME280;34421;48.944;9.460;2023-01-30T05:23:32;99026.34;;;2.63;61.84
48622;BME280;34421;48.944;9.460;2023-01-30T05:25:57;99020.97;;;2.65;62.17
48622;BME280;34421;48.944;9.460;2023-01-30T05:28:22;99009.47;;;2.66;62.24
48622;BME280;34421;48.944;9.460;2023-01-30T05:30:47;99007.81;;;2.65;63.12
48622;BME280;34421;48.944;9.460;2023-01-30T05:33:13;98995.84;;;2.70;61.93
48622;BME280;34421;48.944;9.460;2023-01-30T05:35:38;98994.72;;;2.73;62.80
48622;BME280;34421;48.944;9.460;2023-01-30T05:38:03;99005.13;;;2.74;62.66
48622;BME280;34421;48.944;9.460;2023-01-30T05:40:28;99000.00;;;2.73;62.22
48622;BME280;34421;48.944;9.460;2023-01-30T05:42:53;99005.53;;;2.70;62.59
48622;BME280;34421;48.944;9.460;2023-01-30T05:45:19;98998.66;;;2.69;63.05
48622;BME280;34421;48.944;9.460;2023-01-30T05:47:44;98994.72;;;2.73;62.59
48622;BME280;34421;48.944;9.460;2023-01-30T05:50:14;98984.75;;;2.77;62.32
48622;BME280;34421;48.944;9.460;2023-01-30T05:52:39;98994.16;;;2.79;62.37
48622;BME280;34421;48.944;9.460;2023-01-30T05:55:04;98988.88;;;2.79;63.00
48622;BME280;34421;48.944;9.460;2023-01-30T05:57:29;98981.28;;;2.76;62.71
48622;BME280;34421;48.944;9.460;2023-01-30T05:59:55;98964.88;;;2.64;62.83
48622;BME280;34421;48.944;9.460;2023-01-30T06:02:20;98965.47;;;2.58;62.11
48622;BME280;34421;48.944;9.460;2023-01-30T06:04:45;98978.09;;;2.55;63.02
48622;BME280;34421;48.944;9.460;2023-01-30T06:07:10;98970.50;;;2.51;62.68
48622;BME280;34421;48.944;9.460;2023-01-30T06:09:35;98965.13;;;2.53;62.66
48622;BME280;34421;48.944;9.460;2023-01-30T06:12:01;98960.53;;;2.55;62.47
48622;BME280;34421;48.944;9.460;2023-01-30T06:14:26;98950.31;;;2.52;62.70
48622;BME280;34421;48.944;9.460;2023-01-30T06:16:51;98949.19;;;2.55;63.39
48622;BME280;34421;48.944;9.460;2023-01-30T06:19:16;98949.28;;;2.63;62.74
48622;BME280;34421;48.944;9.460;2023-01-30T06:21:41;98950.50;;;2.68;62.40
48622;BME280;34421;48.944;9.460;2023-01-30T06:24:07;98965.69;;;2.74;63.06
48622;BME280;34421;48.944;9.460;2023-01-30T06:26:32;98968.41;;;2.83;63.14
48622;BME280;34421;48.944;9.460;2023-01-30T06:28:57;98976.34;;;2.91;61.74
48622;BME280;34421;48.944;9.460;2023-01-30T06:31:22;98964.72;;;2.93;62.52
48622;BME280;34421;48.944;9.460;2023-01-30T06:33:47;98969.00;;;2.94;61.48
48622;BME280;34421;48.944;9.460;2023-01-30T06:36:13;98957.50;;;2.95;61.47
48622;BME280;34421;48.944;9.460;2023-01-30T06:38:38;98955.88;;;2.94;61.98
48622;BME280;34421;48.944;9.460;2023-01-30T06:41:04;98953.22;;;2.94;62.42
48622;BME280;34421;48.944;9.460;2023-01-30T06:43:29;98967.50;;;2.92;61.46
48622;BME280;34421;48.944;9.460;2023-01-30T06:45:54;98964.88;;;2.92;61.94
48622;BME280;34421;48.944;9.460;2023-01-30T06:48:22;98969.97;;;2.93;61.65
48622;BME280;34421;48.944;9.460;2023-01-30T06:50:47;98955.88;;;2.94;62.42
48622;BME280;34421;48.944;9.460;2023-01-30T06:53:12;98958.63;;;2.93;61.36
48622;BME280;34421;48.944;9.460;2023-01-30T06:55:38;98949.22;;;2.90;62.30
48622;BME280;34421;48.944;9.460;2023-01-30T06:58:03;98957.50;;;2.95;62.08
48622;BME280;34421;48.944;9.460;2023-01-30T07:00:29;98969.75;;;3.05;62.19
48622;BME280;34421;48.944;9.460;2023-01-30T07:02:55;98966.13;;;3.06;60.83
48622;BME280;34421;48.944;9.460;2023-01-30T07:05:20;98968.63;;;3.07;61.23
48622;BME280;34421;48.944;9.460;2023-01-30T07:07:45;98964.19;;;3.08;60.64
48622;BME280;34421;48.944;9.460;2023-01-30T07:10:11;98966.59;;;3.19;60.90
48622;BME280;34421;48.944;9.460;2023-01-30T07:12:36;98968.03;;;3.31;60.60
48622;BME280;34421;48.944;9.460;2023-01-30T07:15:01;98978.06;;;3.36;59.85
48622;BME280;34421;48.944;9.460;2023-01-30T07:17:27;98978.97;;;3.45;59.82
48622;BME280;34421;48.944;9.460;2023-01-30T07:19:52;98986.75;;;3.46;60.33
48622;BME280;34421;48.944;9.460;2023-01-30T07:22:17;98988.06;;;3.50;59.52
48622;BME280;34421;48.944;9.460;2023-01-30T07:24:43;98990.56;;;3.52;59.38
48622;BME280;34421;48.944;9.460;2023-01-30T07:27:08;99003.25;;;3.56;60.64
48622;BME280;34421;48.944;9.460;2023-01-30T07:29:34;99004.47;;;3.62;59.35
48622;BME280;34421;48.944;9.460;2023-01-30T07:31:59;98992.97;;;3.63;59.94
48622;BME280;34421;48.944;9.460;2023-01-30T07:34:25;98991.59;;;3.59;59.47
48622;BME280;34421;48.944;9.460;2023-01-30T07:36:50;98993.09;;;3.61;59.77
48622;BME280;34421;48.944;9.460;2023-01-30T07:39:15;98990.41;;;3.53;58.64
48622;BME280;34421;48.944;9.460;2023-01-30T07:41:40;99013.06;;;3.46;59.33
48622;BME280;34421;48.944;9.460;2023-01-30T07:44:06;98994.53;;;3.56;60.07
48622;BME280;34421;48.944;9.460;2023-01-30T07:46:31;98986.63;;;3.56;59.96
48622;BME280;34421;48.944;9.460;2023-01-30T07:49:05;98980.75;;;3.62;59.35
48622;BME280;34421;48.944;9.460;2023-01-30T07:51:31;98991.28;;;3.62;59.37
48622;BME280;34421;48.944;9.460;2023-01-30T07:53:56;98989.97;;;3.58;59.30
48622;BME280;34421;48.944;9.460;2023-01-30T07:56:21;98982.19;;;3.56;59.23
48622;BME280;34421;48.944;9.460;2023-01-30T07:58:47;98979.44;;;3.58;60.29
48622;BME280;34421;48.944;9.460;2023-01-30T08:01:12;98984.69;;;3.58;59.58
48622;BME280;34421;48.944;9.460;2023-01-30T08:03:37;98982.44;;;3.63;59.00
48622;BME280;34421;48.944;9.460;2023-01-30T08:06:03;98973.69;;;3.62;58.75
48622;BME280;34421;48.944;9.460;2023-01-30T08:08:28;98983.69;;;3.59;59.20
48622;BME280;34421;48.944;9.460;2023-01-30T08:10:53;98984.00;;;3.56;59.79
48622;BME280;34421;48.944;9.460;2023-01-30T08:13:18;98993.09;;;3.61;60.31
48622;BME280;34421;48.944;9.460;2023-01-30T08:15:43;98993.13;;;3.43;59.23
48622;BME280;34421;48.944;9.460;2023-01-30T08:18:09;98981.00;;;3.33;59.22
48622;BME280;34421;48.944;9.460;2023-01-30T08:20:34;98958.31;;;3.32;60.96
48622;BME280;34421;48.944;9.460;2023-01-30T08:23:00;98938.91;;;3.33;59.82
48622;BME280;34421;48.944;9.460;2023-01-30T08:25:26;98940.78;;;3.40;60.17
48622;BME280;34421;48.944;9.460;2023-01-30T08:27:51;98958.50;;;3.56;59.96
48622;BME280;34421;48.944;9.460;2023-01-30T08:30:17;98946.16;;;3.57;59.91
48622;BME280;34421;48.944;9.460;2023-01-30T08:32:42;98932.03;;;3.58;61.46
48622;BME280;34421;48.944;9.460;2023-01-30T08:35:08;98924.63;;;3.61;61.41
48622;BME280;34421;48.944;9.460;2023-01-30T08:37:33;98916.22;;;3.58;60.70
48622;BME280;34421;48.944;9.460;2023-01-30T08:39:58;98926.97;;;3.64;61.53
48622;BME280;34421;48.944;9.460;2023-01-30T08:42:24;98941.00;;;3.73;60.88
48622;BME280;34421;48.944;9.460;2023-01-30T08:44:49;98948.66;;;3.84;61.64
48622;BME280;34421;48.944;9.460;2023-01-30T08:47:14;98928.91;;;3.88;61.50
48622;BME280;34421;48.944;9.460;2023-01-30T08:49:39;98931.22;;;3.92;61.50
48622;BME280;34421;48.944;9.460;2023-01-30T08:52:04;98928.59;;;3.92;61.17
48622;BME280;34421;48.944;9.460;2023-01-30T08:54:30;98930.28;;;3.93;60.29
48622;BME280;34421;48.944;9.460;2023-01-30T08:56:55;98936.88;;;3.97;61.02
48622;BME280;34421;48.944;9.460;2023-01-30T08:59:20;98919.41;;;3.96;60.37
48622;BME280;34421;48.944;9.460;2023-01-30T09:01:45;98905.75;;;4.00;60.41
48622;BME280;34421;48.944;9.460;2023-01-30T09:04:11;98888.50;;;4.06;60.23
48622;BME280;34421;48.944;9.460;2023-01-30T09:06:36;98902.03;;;4.11;59.77
48622;BME280;34421;48.944;9.460;2023-01-30T09:09:01;98900.03;;;4.13;60.85
48622;BME280;34421;48.944;9.460;2023-01-30T09:11:26;98891.00;;;4.16;61.21
48622;BME280;34421;48.944;9.460;2023-01-30T09:13:51;98896.16;;;4.33;60.53
48622;BME280;34421;48.944;9.460;2023-01-30T09:16:17;98903.59;;;4.38;60.78
48622;BME280;34421;48.944;9.460;2023-01-30T09:18:42;98905.44;;;4.46;59.91
48622;BME280;34421;48.944;9.460;2023-01-30T09:21:08;98905.47;;;4.62;59.11
48622;BME280;34421;48.944;9.460;2023-01-30T09:23:34;98911.97;;;4.76;59.80
48622;BME280;34421;48.944;9.460;2023-01-30T09:25:59;98899.91;;;4.82;59.59
48622;BME280;34421;48.944;9.460;2023-01-30T09:28:25;98893.81;;;4.89;58.68
48622;BME280;34421;48.944;9.460;2023-01-30T09:30:50;98896.94;;;4.93;59.50
48622;BME280;34421;48.944;9.460;2023-01-30T09:33:16;98904.22;;;4.91;59.92
48622;BME280;34421;48.944;9.460;2023-01-30T09:35:45;98901.25;;;4.86;59.74
48622;BME280;34421;48.944;9.460;2023-01-30T09:38:11;98895.28;;;4.75;59.76
48622;BME280;34421;48.944;9.460;2023-01-30T09:40:36;98892.31;;;4.70;59.03
48622;BME280;34421;48.944;9.460;2023-01-30T09:53:21;98867.72;;;4.70;60.43
48622;BME280;34421;48.944;9.460;2023-01-30T09:55:49;98853.06;;;4.59;59.63
48622;BME280;34421;48.944;9.460;2023-01-30T09:58:21;98846.28;;;4.56;60.84
48622;BME280;34421;48.944;9.460;2023-01-30T10:00:48;98851.09;;;4.61;60.54
48622;BME280;34421;48.944;9.460;2023-01-30T10:08:14;98858.00;;;4.78;60.33
48622;BME280;34421;48.944;9.460;2023-01-30T10:10:46;98846.66;;;4.86;60.65
48622;BME280;34421;48.944;9.460;2023-01-30T10:15:42;98847.81;;;5.00;60.14
48622;BME280;34421;48.944;9.460;2023-01-30T10:18:24;98843.03;;;5.03;60.20
48622;BME280;34421;48.944;9.460;2023-01-30T10:21:00;98836.94;;;5.03;59.34
48622;BME280;34421;48.944;9.460;2023-01-30T10:23:32;98837.56;;;5.05;60.25
48622;BME280;34421;48.944;9.460;2023-01-30T10:26:20;98847.78;;;5.08;58.81
48622;BME280;34421;48.944;9.460;2023-01-30T10:28:55;98837.25;;;5.08;58.93
48622;BME280;34421;48.944;9.460;2023-01-30T10:31:21;98843.03;;;5.12;59.85
48622;BME280;34421;48.944;9.460;2023-01-30T10:36:40;98846.66;;;5.19;59.74
48622;BME280;34421;48.944;9.460;2023-01-30T10:39:17;98839.53;;;5.28;60.68
48622;BME280;34421;48.944;9.460;2023-01-30T10:41:48;98835.56;;;5.32;60.29
48622;BME280;34421;48.944;9.460;2023-01-30T10:44:15;98831.28;;;5.39;59.25
48622;BME280;34421;48.944;9.460;2023-01-30T10:49:39;98831.88;;;5.57;59.00
48622;BME280;34421;48.944;9.460;2023-01-30T10:52:21;98820.66;;;5.63;58.97
48622;BME280;34421;48.944;9.460;2023-01-30T10:59:49;98834.09;;;5.85;60.05
48622;BME280;34421;48.944;9.460;2023-01-30T11:02:21;98841.88;;;5.86;60.24
48622;BME280;34421;48.944;9.460;2023-01-30T11:05:09;98841.38;;;5.83;60.12
48622;BME280;34421;48.944;9.460;2023-01-30T11:07:37;98853.25;;;5.87;60.68
48622;BME280;34421;48.944;9.460;2023-01-30T11:10:13;98835.44;;;5.89;60.39
48622;BME280;34421;48.944;9.460;2023-01-30T11:12:39;98844.81;;;5.91;59.05
48622;BME280;34421;48.944;9.460;2023-01-30T11:15:05;98830.31;;;5.87;59.46
48622;BME280;34421;48.944;9.460;2023-01-30T11:17:34;98829.13;;;5.90;59.81
48622;BME280;34421;48.944;9.460;2023-01-30T11:20:01;98822.22;;;5.89;60.81
48622;BME280;34421;48.944;9.460;2023-01-30T11:22:26;98823.19;;;5.88;60.22
48622;BME280;34421;48.944;9.460;2023-01-30T11:24:59;98817.09;;;5.87;60.27
48622;BME280;34421;48.944;9.460;2023-01-30T11:27:26;98815.44;;;5.86;61.13
48622;BME280;34421;48.944;9.460;2023-01-30T11:32:36;98827.81;;;5.86;60.39
48622;BME280;34421;48.944;9.460;2023-01-30T11:37:36;98818.81;;;5.72;61.28
48622;BME280;34421;48.944;9.460;2023-01-30T11:42:46;98828.88;;;5.68;61.96
48622;BME280;34421;48.944;9.460;2023-01-30T11:45:11;98822.63;;;5.61;62.06
48622;BME280;34421;48.944;9.460;2023-01-30T11:47:37;98829.38;;;5.64;62.28
48622;BME280;34421;48.944;9.460;2023-01-30T11:50:03;98815.34;;;5.63;63.59
48622;BME280;34421;48.944;9.460;2023-01-30T11:52:30;98814.06;;;5.59;63.37
48622;BME280;34421;48.944;9.460;2023-01-30T11:54:59;98803.84;;;5.56;63.65
48622;BME280;34421;48.944;9.460;2023-01-30T11:57:29;98789.31;;;5.52;63.66
48622;BME280;34421;48.944;9.460;2023-01-30T12:00:02;98780.44;;;5.45;63.80
48622;BME280;34421;48.944;9.460;2023-01-30T12:02:31;98789.84;;;5.47;63.52
48622;BME280;34421;48.944;9.460;2023-01-30T12:05:15;98787.47;;;5.53;63.01
48622;BME280;34421;48.944;9.460;2023-01-30T12:07:42;98784.84;;;5.53;64.44
48622;BME280;34421;48.944;9.460;2023-01-30T12:12:51;98761.38;;;5.66;64.07
48622;BME280;34421;48.944;9.460;2023-01-30T12:15:33;98777.13;;;5.82;63.39
48622;BME280;34421;48.944;9.460;2023-01-30T12:18:03;98759.94;;;5.86;64.08
48622;BME280;34421;48.944;9.460;2023-01-30T12:23:04;98774.47;;;5.90;64.87
48622;BME280;34421;48.944;9.460;2023-01-30T12:26:15;98767.84;;;5.94;65.12
48622;BME280;34421;48.944;9.460;2023-01-30T12:28:24;98786.19;;;5.88;66.68
48622;BME280;34421;48.944;9.460;2023-01-30T12:30:55;98786.88;;;5.82;67.50
48622;BME280;34421;48.944;9.460;2023-01-30T12:33:22;98781.13;;;5.78;67.22
48622;BME280;34421;48.944;9.460;2023-01-30T12:43:21;98783.28;;;5.75;67.65
48622;BME280;34421;48.944;9.460;2023-01-30T12:50:59;98795.16;;;5.79;67.25
48622;BME280;34421;48.944;9.460;2023-01-30T13:01:24;98787.31;;;5.62;68.01
48622;BME280;34421;48.944;9.460;2023-01-30T13:12:02;98782.72;;;5.87;67.20
48622;BME280;34421;48.944;9.460;2023-01-30T13:14:33;98779.09;;;5.88;67.00
48622;BME280;34421;48.944;9.460;2023-01-30T13:19:30;98774.28;;;5.92;67.42
48622;BME280;34421;48.944;9.460;2023-01-30T13:22:03;98775.59;;;6.04;67.02
48622;BME280;34421;48.944;9.460;2023-01-30T13:24:52;98780.03;;;6.04;66.36
48622;BME280;34421;48.944;9.460;2023-01-30T13:27:21;98793.06;;;6.05;66.84
48622;BME280;34421;48.944;9.460;2023-01-30T13:29:48;98800.22;;;5.97;66.64
48622;BME280;34421;48.944;9.460;2023-01-30T13:32:17;98808.34;;;5.95;67.35
48622;BME280;34421;48.944;9.460;2023-01-30T13:34:45;98795.59;;;5.90;66.37
48622;BME280;34421;48.944;9.460;2023-01-30T13:37:13;98816.44;;;5.93;66.83
48622;BME280;34421;48.944;9.460;2023-01-30T13:39:41;98831.13;;;5.96;66.24
48622;BME280;34421;48.944;9.460;2023-01-30T13:42:12;98836.41;;;5.88;66.23
48622;BME280;34421;48.944;9.460;2023-01-30T13:44:39;98849.28;;;5.83;67.69
48622;BME280;34421;48.944;9.460;2023-01-30T13:47:10;98841.72;;;5.80;67.26
48622;BME280;34421;48.944;9.460;2023-01-30T13:52:28;98865.84;;;5.77;66.55
48622;BME280;34421;48.944;9.460;2023-01-30T13:55:32;98875.94;;;5.65;67.24
48622;BME280;34421;48.944;9.460;2023-01-30T13:57:51;98864.72;;;5.63;67.76
48622;BME280;34421;48.944;9.460;2023-01-30T14:03:13;98871.50;;;5.65;67.82
48622;BME280;34421;48.944;9.460;2023-01-30T14:08:20;98879.91;;;5.61;67.46
48622;BME280;34421;48.944;9.460;2023-01-30T14:10:46;98889.00;;;5.58;66.94
48622;BME280;34421;48.944;9.460;2023-01-30T14:13:12;98891.00;;;5.56;66.88
48622;BME280;34421;48.944;9.460;2023-01-30T14:15:39;98884.06;;;5.47;67.92
48622;BME280;34421;48.944;9.460;2023-01-30T14:18:12;98890.19;;;5.39;67.42
48622;BME280;34421;48.944;9.460;2023-01-30T14:20:44;98893.66;;;5.32;68.54
48622;BME280;34421;48.944;9.460;2023-01-30T14:23:20;98878.81;;;5.22;68.60
48622;BME280;34421;48.944;9.460;2023-01-30T14:25:52;98885.25;;;5.28;68.15
48622;BME280;34421;48.944;9.460;2023-01-30T14:35:45;98879.78;;;5.38;68.20
48622;BME280;34421;48.944;9.460;2023-01-30T14:38:14;98882.94;;;5.41;67.37
48622;BME280;34421;48.944;9.460;2023-01-30T14:41:26;98886.53;;;5.48;68.50
48622;BME280;34421;48.944;9.460;2023-01-30T14:43:33;98903.06;;;5.42;67.44
48622;BME280;34421;48.944;9.460;2023-01-30T14:46:02;98903.53;;;5.46;68.44
48622;BME280;34421;48.944;9.460;2023-01-30T14:53:55;98913.09;;;5.55;67.92
48622;BME280;34421;48.944;9.460;2023-01-30T14:56:33;98923.34;;;5.66;67.19
48622;BME280;34421;48.944;9.460;2023-01-30T14:59:08;98929.28;;;5.68;66.71
48622;BME280;34421;48.944;9.460;2023-01-30T15:04:18;98919.25;;;5.39;68.03
48622;BME280;34421;48.944;9.460;2023-01-30T15:06:44;98933.09;;;5.33;67.32
48622;BME280;34421;48.944;9.460;2023-01-30T15:09:10;98924.19;;;5.26;67.93
48622;BME280;34421;48.944;9.460;2023-01-30T15:11:39;98933.78;;;5.27;68.26
48622;BME280;34421;48.944;9.460;2023-01-30T15:14:11;98938.72;;;5.22;68.09
48622;BME280;34421;48.944;9.460;2023-01-30T15:16:49;98940.03;;;5.26;67.61
48622;BME280;34421;48.944;9.460;2023-01-30T15:19:22;98942.34;;;5.13;68.97